Time;durP1;ratioP1;P1;durP2;ratioP2;P2;SDS_P1;SDS_P2;PMS_P1;PMS_P2;Temp;Humidity;BMP_temperature;BMP_pressure;BME280_temperature;BME280_humidity;BME280_pressure;Samples;Min_cycle;Max_cycle;Signal;HPM_P1;HPM_P2
2022/09/19 00:01:52;;;;;;;11.25;1.58;;;12.00;99.90;;;;;;4936231;28;92385;-77
2022/09/19 00:04:27;;;;;;;8.80;1.48;;;12.00;99.90;;;;;;4936344;28;92453;-78
2022/09/19 00:06:55;;;;;;;7.75;1.83;;;12.00;99.90;;;;;;4935058;28;95663;-77
2022/09/19 00:09:25;;;;;;;11.65;2.03;;;12.00;99.90;;;;;;4918363;28;106508;-78
2022/09/19 00:11:55;;;;;;;8.60;1.60;;;12.10;99.90;;;;;;4934954;28;92584;-77
2022/09/19 00:14:27;;;;;;;10.93;2.08;;;12.10;99.90;;;;;;4934621;28;92536;-78
2022/09/19 00:16:59;;;;;;;12.90;1.90;;;12.10;99.90;;;;;;4934851;28;95788;-78
2022/09/19 00:19:27;;;;;;;9.90;1.83;;;12.10;99.90;;;;;;4934604;28;95784;-78
2022/09/19 00:21:57;;;;;;;13.10;1.73;;;12.10;99.90;;;;;;4936196;28;92436;-78
2022/09/19 00:27:13;;;;;;;7.25;1.63;;;12.20;99.90;;;;;;4934730;28;95774;-77
2022/09/19 00:29:42;;;;;;;11.18;2.50;;;12.20;99.90;;;;;;4934710;28;95536;-77
2022/09/19 00:32:14;;;;;;;6.70;1.80;;;12.20;99.90;;;;;;4919120;28;94934;-77
2022/09/19 00:34:44;;;;;;;6.03;1.65;;;12.30;99.90;;;;;;4938248;28;92424;-78
2022/09/19 00:37:11;;;;;;;8.40;1.38;;;12.20;99.90;;;;;;4937861;28;94935;-77
2022/09/19 00:39:38;;;;;;;8.70;1.55;;;12.20;99.90;;;;;;4937957;28;93010;-78
2022/09/19 00:42:13;;;;;;;8.10;1.80;;;12.30;99.90;;;;;;4937742;28;92525;-78
2022/09/19 00:44:40;;;;;;;8.13;1.63;;;12.30;99.90;;;;;;4938336;28;92549;-77
2022/09/19 00:47:17;;;;;;;8.95;2.13;;;12.30;99.90;;;;;;4938054;28;93238;-77
2022/09/19 00:49:48;;;;;;;12.90;2.92;;;12.30;99.90;;;;;;4938087;28;95572;-78
2022/09/19 00:52:21;;;;;;;11.30;1.60;;;12.30;99.90;;;;;;4937903;28;92563;-77
2022/09/19 00:54:49;;;;;;;8.02;1.75;;;12.30;99.90;;;;;;4937947;28;92510;-77
2022/09/19 00:57:17;;;;;;;7.90;1.65;;;12.30;99.90;;;;;;4919627;28;107180;-78
2022/09/19 00:59:48;;;;;;;9.90;2.70;;;12.30;99.90;;;;;;4938988;28;95527;-77
2022/09/19 01:02:21;;;;;;;9.77;2.08;;;12.30;99.90;;;;;;4937682;28;92576;-78
2022/09/19 01:04:48;;;;;;;11.55;1.60;;;12.30;99.90;;;;;;4939037;28;92578;-78
2022/09/19 01:07:26;;;;;;;8.90;1.58;;;12.30;99.90;;;;;;4937559;28;93197;-78
2022/09/19 01:10:11;;;;;;;11.82;2.13;;;12.30;99.90;;;;;;4921406;28;95709;-77
2022/09/19 01:12:48;;;;;;;9.75;1.63;;;12.30;99.90;;;;;;4937414;28;92555;-78
2022/09/19 01:15:33;;;;;;;11.40;2.20;;;12.30;99.90;;;;;;4939163;28;91708;-78
2022/09/19 01:18:02;;;;;;;9.70;1.63;;;12.30;99.90;;;;;;4937247;28;96011;-78
2022/09/19 01:20:44;;;;;;;9.13;1.88;;;12.30;99.90;;;;;;4937967;28;107353;-78
2022/09/19 01:23:23;;;;;;;9.30;2.50;;;12.40;99.90;;;;;;4936253;28;94932;-78
2022/09/19 01:26:09;;;;;;;11.57;2.83;;;12.50;99.90;;;;;;4937169;28;92539;-78
2022/09/19 01:28:43;;;;;;;10.30;2.13;;;12.60;99.90;;;;;;4936928;28;95437;-78
2022/09/19 01:31:22;;;;;;;14.00;2.00;;;12.60;99.90;;;;;;4937190;28;95467;-78
2022/09/19 01:34:18;;;;;;;10.90;2.10;;;12.70;99.90;;;;;;4937608;28;93004;-78
2022/09/19 01:37:00;;;;;;;10.00;2.50;;;12.70;99.90;;;;;;4926597;28;92678;-77
2022/09/19 01:39:29;;;;;;;11.00;2.35;;;12.70;99.90;;;;;;4936809;28;95523;-78
2022/09/19 01:41:59;;;;;;;13.98;2.60;;;12.70;99.90;;;;;;4921242;28;95762;-78
2022/09/19 01:44:28;;;;;;;9.50;2.28;;;12.80;99.90;;;;;;4936676;28;92552;-78
2022/09/19 01:47:14;;;;;;;13.10;2.30;;;12.80;99.90;;;;;;4937001;28;92469;-77
2022/09/19 01:50:10;;;;;;;12.25;2.20;;;12.90;99.90;;;;;;4935391;28;97827;-78
2022/09/19 01:53:00;;;;;;;12.55;3.35;;;12.80;99.90;;;;;;4936519;28;96418;-78
2022/09/19 01:56:03;;;;;;;17.90;2.50;;;12.80;99.90;;;;;;4907103;28;92596;-77
2022/09/19 01:58:49;;;;;;;13.52;2.45;;;12.70;99.90;;;;;;4920923;28;92562;-78
2022/09/19 02:01:44;;;;;;;10.00;1.92;;;12.70;99.90;;;;;;4936589;28;95541;-78
2022/09/19 02:04:28;;;;;;;14.95;2.78;;;12.70;99.90;;;;;;4920514;28;95262;-77
2022/09/19 02:07:04;;;;;;;10.93;1.80;;;12.70;99.90;;;;;;4936991;28;92564;-78
2022/09/19 02:09:43;;;;;;;9.05;2.10;;;12.80;99.90;;;;;;4920826;28;91822;-78
2022/09/19 02:12:14;;;;;;;7.45;1.75;;;12.70;99.90;;;;;;4920551;28;95246;-78
2022/09/19 02:14:42;;;;;;;10.38;2.17;;;12.70;99.90;;;;;;4920216;28;95426;-77
2022/09/19 02:17:14;;;;;;;11.60;2.40;;;12.70;99.90;;;;;;4936628;28;94928;-78
2022/09/19 02:19:52;;;;;;;11.77;1.77;;;12.70;99.90;;;;;;4936352;28;93062;-77
2022/09/19 02:22:33;;;;;;;11.27;2.22;;;12.70;99.90;;;;;;4936334;28;95653;-77
2022/09/19 02:25:06;;;;;;;13.57;2.72;;;12.70;99.90;;;;;;4936248;28;95471;-78
2022/09/19 02:27:41;;;;;;;14.82;2.30;;;12.60;99.90;;;;;;4936062;28;92453;-78
2022/09/19 02:30:11;;;;;;;16.05;3.38;;;12.70;99.90;;;;;;4936406;28;92527;-78
2022/09/19 02:32:46;;;;;;;15.45;2.08;;;12.60;99.90;;;;;;4920088;28;95306;-78
2022/09/19 02:35:36;;;;;;;10.63;2.40;;;12.70;99.90;;;;;;4936607;28;95234;-78
2022/09/19 02:38:30;;;;;;;13.13;2.13;;;12.70;99.90;;;;;;4935968;28;93097;-77
2022/09/19 02:41:06;;;;;;;;;;;12.70;99.90;;;;;;4920711;28;92563;-77
2022/09/19 02:43:38;;;;;;;9.93;1.75;;;12.60;99.90;;;;;;4951875;28;97475;-78
2022/09/19 02:46:16;;;;;;;15.40;2.25;;;12.50;99.90;;;;;;4935780;28;97859;-78
2022/09/19 02:49:02;;;;;;;14.00;2.20;;;12.60;99.90;;;;;;4919967;28;92419;-78
2022/09/19 02:51:43;;;;;;;14.77;1.77;;;12.60;99.90;;;;;;4920028;28;92471;-78
2022/09/19 02:54:26;;;;;;;11.68;2.80;;;12.60;99.90;;;;;;4935250;28;95748;-78
2022/09/19 02:56:58;;;;;;;19.05;3.55;;;12.60;99.90;;;;;;4935493;28;93999;-78
2022/09/19 02:59:29;;;;;;;15.98;2.15;;;12.60;99.90;;;;;;4936023;28;92491;-78
2022/09/19 03:02:02;;;;;;;12.15;2.42;;;12.60;99.90;;;;;;4936295;28;91694;-78
2022/09/19 03:04:40;;;;;;;14.98;2.67;;;12.70;99.90;;;;;;4935789;28;95812;-78
2022/09/19 03:07:17;;;;;;;12.73;2.28;;;12.70;99.90;;;;;;4919509;28;95359;-78
2022/09/19 03:10:00;;;;;;;12.57;2.03;;;12.70;99.90;;;;;;4934533;28;95467;-78
2022/09/19 03:12:51;;;;;;;9.63;2.10;;;12.70;99.90;;;;;;4935324;28;93475;-78
2022/09/19 03:15:36;;;;;;;13.60;1.77;;;12.70;99.90;;;;;;4919553;28;95616;-78
2022/09/19 03:18:08;;;;;;;8.05;2.25;;;12.70;99.90;;;;;;4919587;28;95476;-78
2022/09/19 03:20:39;;;;;;;11.25;2.15;;;12.70;99.90;;;;;;4935550;28;92395;-78
2022/09/19 03:23:09;;;;;;;11.77;2.20;;;12.80;99.90;;;;;;4919977;28;92440;-77
2022/09/19 03:25:37;;;;;;;10.23;1.98;;;12.80;99.90;;;;;;4935078;28;95601;-78
2022/09/19 03:28:06;;;;;;;8.95;2.05;;;12.80;99.90;;;;;;4919746;28;95844;-77
2022/09/19 03:30:34;;;;;;;8.27;1.40;;;12.80;99.90;;;;;;4919646;28;92495;-77
2022/09/19 03:33:01;;;;;;;8.50;1.80;;;12.80;99.90;;;;;;4935404;28;92536;-78
2022/09/19 03:35:28;;;;;;;7.93;1.58;;;12.80;99.90;;;;;;4933917;28;97746;-78
2022/09/19 03:37:55;;;;;;;8.32;1.85;;;12.80;99.90;;;;;;4935028;28;97785;-77
2022/09/19 03:40:22;;;;;;;11.73;2.08;;;12.80;99.90;;;;;;4935468;28;92469;-77
2022/09/19 03:42:52;;;;;;;11.82;2.22;;;12.80;99.90;;;;;;4918988;28;92794;-78
2022/09/19 03:45:21;;;;;;;13.50;1.67;;;12.80;99.90;;;;;;4919536;28;95285;-77
2022/09/19 03:47:48;;;;;;;13.93;2.38;;;12.70;99.90;;;;;;4918765;28;95547;-77
2022/09/19 03:50:15;;;;;;;10.30;1.83;;;12.80;99.90;;;;;;4935296;28;92580;-77
2022/09/19 03:52:53;;;;;;;8.25;1.73;;;12.70;99.90;;;;;;4920743;28;91810;-77
2022/09/19 03:55:20;;;;;;;9.55;1.38;;;12.70;99.90;;;;;;4935131;28;95599;-77
2022/09/19 03:57:49;;;;;;;10.73;2.63;;;12.70;99.90;;;;;;4919098;28;94934;-77
2022/09/19 04:00:19;;;;;;;8.63;1.73;;;12.70;99.90;;;;;;4918521;28;94904;-77
2022/09/19 04:02:46;;;;;;;8.70;2.20;;;12.70;99.90;;;;;;4935096;28;92465;-78
2022/09/19 04:05:14;;;;;;;13.10;1.95;;;12.70;99.90;;;;;;4936378;28;93189;-77
2022/09/19 04:07:41;;;;;;;6.38;1.85;;;12.70;99.90;;;;;;4922235;28;95038;-77
2022/09/19 04:10:09;;;;;;;10.35;1.58;;;12.80;99.90;;;;;;4938454;28;92611;-77
2022/09/19 04:12:39;;;;;;;7.50;1.67;;;12.80;99.90;;;;;;4938539;28;92568;-77
2022/09/19 04:15:07;;;;;;;6.22;1.75;;;12.80;99.90;;;;;;4922209;28;95547;-78
2022/09/19 04:17:35;;;;;;;7.65;2.60;;;12.80;99.90;;;;;;4922656;28;95446;-78
2022/09/19 04:20:11;;;;;;;13.23;2.30;;;12.80;99.90;;;;;;4923234;28;92775;-77
2022/09/19 04:23:00;;;;;;;8.52;1.75;;;12.80;99.90;;;;;;4924638;28;93549;-77
2022/09/19 04:25:47;;;;;;;11.48;2.13;;;12.80;99.90;;;;;;4936612;28;98302;-78
2022/09/19 04:28:23;;;;;;;8.18;2.42;;;12.90;99.90;;;;;;4937805;28;97051;-78
2022/09/19 04:30:50;;;;;;;10.35;1.88;;;12.90;99.90;;;;;;4938011;28;92463;-77
2022/09/19 04:33:20;;;;;;;9.32;2.25;;;12.90;99.90;;;;;;4938074;28;92476;-77
2022/09/19 04:35:49;;;;;;;7.93;2.15;;;12.90;99.90;;;;;;4921913;28;95468;-78
2022/09/19 04:38:18;;;;;;;9.27;1.58;;;12.90;99.90;;;;;;4937897;28;95001;-78
2022/09/19 04:40:49;;;;;;;15.50;2.30;;;12.90;99.90;;;;;;4937893;28;92533;-78
2022/09/19 04:43:18;;;;;;;10.10;2.13;;;12.90;99.90;;;;;;4921921;28;91792;-78
2022/09/19 04:45:59;;;;;;;11.50;2.03;;;12.90;99.90;;;;;;4937538;28;95608;-77
2022/09/19 04:48:33;;;;;;;11.88;2.25;;;12.90;99.90;;;;;;4922708;28;95365;-77
2022/09/19 04:51:03;;;;;;;12.35;2.15;;;12.90;99.90;;;;;;4920799;28;95737;-78
2022/09/19 04:53:31;;;;;;;16.27;2.03;;;12.90;99.90;;;;;;4922304;28;92463;-78
2022/09/19 04:55:58;;;;;;;13.82;2.22;;;12.90;99.90;;;;;;4937329;28;94727;-78
2022/09/19 04:58:25;;;;;;;14.40;2.35;;;12.90;99.90;;;;;;4921519;28;95568;-78
2022/09/19 05:00:55;;;;;;;14.27;2.90;;;13.00;99.90;;;;;;4937465;28;92635;-78
2022/09/19 05:03:25;;;;;;;10.23;1.95;;;13.00;99.90;;;;;;4937531;28;92659;-77
2022/09/19 05:05:54;;;;;;;10.88;1.65;;;13.00;99.90;;;;;;4921123;28;95489;-78
2022/09/19 05:08:28;;;;;;;12.52;2.85;;;13.00;99.90;;;;;;4922478;28;94981;-77
2022/09/19 05:11:00;;;;;;;12.57;2.15;;;13.00;99.90;;;;;;4921843;28;92538;-77
2022/09/19 05:13:30;;;;;;;14.23;2.30;;;13.10;99.90;;;;;;4921691;28;92632;-77
2022/09/19 05:16:02;;;;;;;9.95;2.38;;;13.10;99.90;;;;;;4935794;28;96974;-77
2022/09/19 05:18:35;;;;;;;10.45;2.60;;;13.00;99.90;;;;;;4936516;28;96310;-77
2022/09/19 05:21:05;;;;;;;14.02;2.67;;;13.00;99.90;;;;;;4921156;28;92493;-78
2022/09/19 05:23:35;;;;;;;12.63;2.05;;;13.00;99.90;;;;;;4937507;28;92568;-78
2022/09/19 05:26:08;;;;;;;13.10;2.30;;;13.00;99.90;;;;;;4921210;28;95526;-78
2022/09/19 05:28:37;;;;;;;12.90;2.20;;;13.10;99.90;;;;;;4937349;28;93192;-78
2022/09/19 05:31:05;;;;;;;10.77;2.10;;;13.00;99.90;;;;;;4938268;28;92475;-78
2022/09/19 05:33:35;;;;;;;9.38;1.98;;;13.10;99.90;;;;;;4937470;28;91713;-78
2022/09/19 05:36:02;;;;;;;11.18;2.03;;;13.10;99.90;;;;;;4936804;28;95478;-78
2022/09/19 05:38:58;;;;;;;9.30;1.75;;;13.10;99.90;;;;;;4919778;28;92905;-77
2022/09/19 05:41:38;;;;;;;10.52;2.10;;;13.00;99.90;;;;;;4935394;28;94849;-77
2022/09/19 05:44:31;;;;;;;11.95;2.35;;;13.00;99.90;;;;;;4933503;28;93624;-78
2022/09/19 05:47:00;;;;;;;7.47;1.60;;;13.00;99.90;;;;;;4936440;28;95576;-77
2022/09/19 05:49:28;;;;;;;10.18;3.10;;;13.00;99.90;;;;;;4936787;28;95244;-77
2022/09/19 05:51:55;;;;;;;10.00;2.15;;;13.00;99.90;;;;;;4937930;28;92454;-77
2022/09/19 05:54:24;;;;;;;13.65;2.13;;;13.00;99.90;;;;;;4937044;28;92603;-78
2022/09/19 05:57:20;;;;;;;9.63;2.50;;;13.10;99.90;;;;;;4918089;28;93148;-77
2022/09/19 05:59:47;;;;;;;13.63;2.15;;;13.10;99.90;;;;;;4921366;28;92969;-77
2022/09/19 06:02:16;;;;;;;17.50;2.58;;;13.10;99.90;;;;;;4936263;28;93137;-78
2022/09/19 06:04:50;;;;;;;11.23;2.42;;;13.10;99.90;;;;;;4936783;28;92845;-78
2022/09/19 06:07:20;;;;;;;15.65;3.05;;;13.20;99.90;;;;;;4918939;28;98087;-78
2022/09/19 06:09:49;;;;;;;9.50;2.20;;;13.20;99.90;;;;;;4936356;28;97870;-78
2022/09/19 06:12:16;;;;;;;12.57;2.35;;;13.20;99.90;;;;;;4920523;28;92532;-77
2022/09/19 06:14:43;;;;;;;13.95;2.30;;;13.20;99.90;;;;;;4936258;28;92510;-77
2022/09/19 06:17:15;;;;;;;9.88;1.98;;;13.20;99.90;;;;;;4920231;28;95608;-78
2022/09/19 06:19:56;;;;;;;12.93;2.35;;;13.20;99.90;;;;;;4922474;28;94905;-77
2022/09/19 06:23:01;;;;;;;14.60;3.22;;;13.10;99.90;;;;;;4931138;28;92614;-77
2022/09/19 06:25:30;;;;;;;16.65;2.65;;;13.10;99.90;;;;;;4936834;28;91814;-77
2022/09/19 06:27:59;;;;;;;10.75;1.52;;;13.20;99.90;;;;;;4936064;28;95910;-77
2022/09/19 06:30:27;;;;;;;12.13;3.20;;;13.20;99.90;;;;;;4934966;28;95887;-78
2022/09/19 06:33:33;;;;;;;8.10;2.10;;;13.30;99.90;;;;;;4924574;28;94852;-78
2022/09/19 06:36:05;;;;;;;12.95;2.60;;;13.30;99.90;;;;;;4905572;28;92638;-77
2022/09/19 06:38:32;;;;;;;11.60;2.95;;;13.30;99.90;;;;;;4937526;28;93197;-77
2022/09/19 06:41:17;;;;;;;10.40;2.35;;;13.40;99.90;;;;;;4921926;28;95309;-77
2022/09/19 06:44:03;;;;;;;15.35;2.58;;;13.40;99.90;;;;;;4934914;28;92351;-77
2022/09/19 06:46:49;;;;;;;14.18;2.50;;;13.40;99.90;;;;;;4936004;28;92472;-77
2022/09/19 06:49:29;;;;;;;20.38;3.28;;;13.40;99.90;;;;;;4922211;28;93420;-77
2022/09/19 06:52:22;;;;;;;15.68;3.22;;;13.40;99.90;;;;;;4934046;28;93698;-77
2022/09/19 07:17:48;;;;;;;8.95;1.83;;;12.70;99.90;;;;;;5056851;27;87511;-73
2022/09/19 07:20:15;;;;;;;13.90;2.28;;;13.30;99.90;;;;;;5053836;27;89281;-73
2022/09/19 07:23:06;;;;;;;10.90;2.67;;;13.40;99.90;;;;;;5054022;27;88613;-73
2022/09/19 07:25:49;;;;;;;8.68;2.45;;;13.60;99.90;;;;;;5053896;27;87701;-73
2022/09/19 07:28:20;;;;;;;8.63;1.95;;;13.60;99.90;;;;;;5053560;27;90375;-73
2022/09/19 07:30:49;;;;;;;11.02;3.03;;;13.60;99.90;;;;;;5054040;27;88435;-73
2022/09/19 07:33:20;;;;;;;8.98;1.80;;;13.70;99.90;;;;;;5069920;27;88953;-73
2022/09/19 07:35:48;;;;;;;11.00;2.55;;;13.70;99.90;;;;;;5053768;27;90913;-73
2022/09/19 07:38:17;;;;;;;11.25;1.92;;;13.80;99.90;;;;;;5036954;27;90303;-73
2022/09/19 07:41:00;;;;;;;11.75;2.42;;;13.80;99.90;;;;;;5053668;27;89630;-73
2022/09/19 07:43:48;;;;;;;13.57;2.10;;;13.90;99.90;;;;;;5053943;27;89398;-73
2022/09/19 07:46:34;;;;;;;16.25;2.72;;;14.00;99.90;;;;;;5054208;27;87390;-73
2022/09/19 07:49:30;;;;;;;13.63;2.92;;;14.00;99.90;;;;;;4981609;27;87914;-73
2022/09/19 07:52:13;;;;;;;12.63;2.85;;;14.20;99.90;;;;;;5053597;27;89357;-73
2022/09/19 07:54:40;;;;;;;10.25;2.95;;;14.40;99.90;;;;;;5019817;27;89172;-73
2022/09/19 07:57:07;;;;;;;15.13;2.47;;;14.60;99.90;;;;;;5053041;27;90829;-73
2022/09/19 07:59:34;;;;;;;7.07;2.38;;;14.90;99.90;;;;;;5053290;27;90135;-73
2022/09/19 08:02:03;;;;;;;9.57;3.90;;;15.20;99.90;;;;;;5053253;27;90005;-73
2022/09/19 08:04:36;;;;;;;14.45;2.22;;;15.50;99.90;;;;;;5053422;27;89270;-73
2022/09/19 08:07:05;;;;;;;10.98;6.00;;;15.80;99.90;;;;;;5054610;27;88438;-73
2022/09/19 08:09:33;;;;;;;9.13;6.53;;;16.00;99.90;;;;;;5053180;27;90414;-73
2022/09/19 08:12:11;;;;;;;11.70;6.07;;;16.30;99.90;;;;;;5052990;27;89503;-73
2022/09/19 08:14:44;;;;;;;17.23;3.92;;;16.80;99.90;;;;;;5037543;27;88297;-73
2022/09/19 08:17:11;;;;;;;10.20;2.25;;;17.30;99.90;;;;;;5052867;27;90880;-73
2022/09/19 08:19:40;;;;;;;10.60;2.22;;;17.70;99.90;;;;;;5053300;27;90041;-73
2022/09/19 08:22:07;;;;;;;10.95;2.50;;;17.90;99.90;;;;;;5053026;27;89605;-73
2022/09/19 08:24:39;;;;;;;7.57;2.50;;;17.80;99.90;;;;;;5037030;27;89211;-73
2022/09/19 08:27:11;;;;;;;8.65;1.98;;;17.70;99.90;;;;;;5042842;27;89630;-73
2022/09/19 08:29:38;;;;;;;9.27;2.08;;;17.60;99.90;;;;;;5056333;27;90865;-73
2022/09/19 08:32:14;;;;;;;10.27;2.28;;;17.60;99.90;;;;;;5023782;28;89454;-73
2022/09/19 08:34:42;;;;;;;8.05;3.13;;;17.50;99.90;;;;;;5056114;27;88150;-73
2022/09/19 08:37:10;;;;;;;10.15;2.40;;;17.60;99.90;;;;;;5039073;28;90906;-73
2022/09/19 08:40:15;;;;;;;9.07;2.85;;;17.60;99.90;;;;;;5039353;28;90606;-73
2022/09/19 08:43:07;;;;;;;11.50;2.33;;;17.50;99.90;;;;;;5038933;28;89202;-73
2022/09/19 08:46:04;;;;;;;9.55;2.90;;;17.40;99.90;;;;;;5027043;28;89005;-73
2022/09/19 08:48:54;;;;;;;11.53;3.10;;;17.20;99.90;;;;;;5038981;28;90721;-73
2022/09/19 08:51:48;;;;;;;15.48;3.60;;;17.00;99.90;;;;;;5038873;28;89909;-73
2022/09/19 08:54:40;;;;;;;10.90;2.80;;;16.80;99.90;;;;;;5023216;28;89812;-73
2022/09/19 08:57:27;;;;;;;13.60;3.53;;;16.60;99.90;;;;;;5039043;28;89245;-73
2022/09/19 09:00:14;;;;;;;11.60;2.30;;;16.50;99.90;;;;;;5023146;28;90876;-73
2022/09/19 09:02:55;;;;;;;13.30;3.08;;;16.40;99.90;;;;;;5038934;28;90416;-73
2022/09/19 09:06:15;;;;;;;13.43;2.95;;;16.40;99.90;;;;;;5038980;28;89589;-73
2022/09/19 09:08:54;;;;;;;10.00;2.60;;;16.50;99.90;;;;;;5039096;28;89628;-73
2022/09/19 09:11:49;;;;;;;10.15;2.22;;;16.50;99.90;;;;;;5038576;28;90896;-73
2022/09/19 09:14:35;;;;;;;11.85;2.97;;;16.40;99.90;;;;;;5055585;27;90474;-73
2022/09/19 09:17:16;;;;;;;12.88;3.28;;;16.40;99.90;;;;;;5038614;28;88572;-73
2022/09/19 09:20:04;;;;;;;14.63;3.60;;;16.40;99.90;;;;;;5038958;28;89290;-73
2022/09/19 09:22:47;;;;;;;6.53;1.90;;;16.40;99.90;;;;;;5055468;27;90429;-73
2022/09/19 09:25:42;;;;;;;13.85;2.97;;;16.70;99.90;;;;;;5038787;28;90019;-73
2022/09/19 09:28:26;;;;;;;17.05;2.63;;;16.80;99.90;;;;;;5038793;28;89327;-73
2022/09/19 09:31:25;;;;;;;14.95;3.20;;;17.00;99.90;;;;;;5039418;28;87480;-73
2022/09/19 09:34:03;;;;;;;;;;;17.20;99.90;;;;;;5039079;28;90563;-74
2022/09/19 09:36:37;;;;;;;9.48;2.38;;;17.20;99.90;;;;;;5039620;28;90203;-75
2022/09/19 09:39:11;;;;;;;12.88;3.38;;;17.20;99.90;;;;;;5037839;27;89758;-76
2022/09/19 09:41:47;;;;;;;11.13;2.13;;;17.30;99.90;;;;;;5038472;28;89005;-74
2022/09/19 09:44:38;;;;;;;12.90;2.88;;;17.30;99.90;;;;;;5021555;28;89779;-71
2022/09/19 09:47:25;;;;;;;15.02;2.95;;;17.40;99.90;;;;;;5039800;28;87552;-72
2022/09/19 09:50:04;;;;;;;9.88;3.20;;;17.30;99.90;;;;;;5007286;28;89259;-72
2022/09/19 09:52:31;;;;;;;14.95;3.17;;;17.30;99.90;;;;;;5021402;28;89237;-72
2022/09/19 09:58:25;;;;;;;8.57;1.92;;;17.40;99.90;;;;;;5039621;28;87991;-72
2022/09/19 10:04:06;;;;;;;10.60;2.37;;;17.70;99.90;;;;;;5038342;28;88345;-72
2022/09/19 10:07:02;;;;;;;9.88;2.30;;;17.60;99.90;;;;;;5038260;28;88339;-72
2022/09/19 10:09:33;;;;;;;8.75;2.53;;;17.40;99.90;;;;;;5037934;28;90314;-72
2022/09/19 10:12:25;;;;;;;12.30;3.75;;;17.10;99.90;;;;;;5037850;28;89516;-72
2022/09/19 10:15:18;;;;;;;15.13;2.35;;;16.90;99.90;;;;;;5039238;27;87535;-71
2022/09/19 10:18:06;;;;;;;12.32;2.25;;;16.70;99.90;;;;;;5037864;28;89395;-72
2022/09/19 10:20:49;;;;;;;12.38;2.80;;;16.90;99.90;;;;;;5037306;28;89553;-72
2022/09/19 10:23:23;;;;;;;5.47;2.10;;;17.10;99.90;;;;;;5037654;28;88705;-72
2022/09/19 10:26:02;;;;;;;2.90;1.40;;;17.10;99.90;;;;;;5037742;28;89301;-72
2022/09/19 10:28:37;;;;;;;8.20;2.00;;;17.00;99.90;;;;;;5037467;28;89215;-72
2022/09/19 10:31:34;;;;;;;9.30;1.63;;;16.90;99.90;;;;;;5037262;28;89148;-72
2022/09/19 10:34:27;;;;;;;8.15;2.83;;;16.80;99.90;;;;;;5037090;28;89304;-72
2022/09/19 10:37:02;;;;;;;7.78;1.85;;;16.80;99.90;;;;;;5037075;28;89235;-72
2022/09/19 10:39:44;;;;;;;10.85;2.20;;;16.80;99.90;;;;;;5037215;28;89560;-72
2022/09/19 10:42:41;;;;;;;11.13;3.13;;;16.90;99.90;;;;;;5037376;28;90365;-72
2022/09/19 10:45:26;;;;;;;7.07;2.13;;;17.00;99.90;;;;;;5032374;28;89380;-72
2022/09/19 10:48:11;;;;;;;5.47;2.10;;;17.00;99.90;;;;;;5037470;28;88002;-72
2022/09/19 10:50:50;;;;;;;5.03;1.30;;;17.20;99.90;;;;;;5036533;28;90809;-72
2022/09/19 10:53:26;;;;;;;5.15;1.60;;;17.20;99.90;;;;;;5037373;28;90417;-72
2022/09/19 10:55:59;;;;;;;6.78;1.92;;;17.30;99.90;;;;;;5037156;28;89793;-72
2022/09/19 10:58:27;;;;;;;6.88;2.30;;;17.20;99.90;;;;;;5036760;28;89484;-72
2022/09/19 11:01:18;;;;;;;8.48;2.22;;;17.20;99.90;;;;;;5037222;28;90455;-72
2022/09/19 11:04:02;;;;;;;8.63;2.60;;;17.10;99.90;;;;;;5036755;28;89881;-72
2022/09/19 11:06:31;;;;;;;6.28;3.05;;;17.10;99.90;;;;;;5053764;27;89467;-72
2022/09/19 11:09:00;;;;;;;7.07;2.10;;;17.00;99.90;;;;;;5037235;28;89424;-72
2022/09/19 11:11:37;;;;;;;10.95;2.47;;;17.00;99.90;;;;;;5036714;28;90409;-72
2022/09/19 11:14:18;;;;;;;8.82;2.25;;;17.00;99.90;;;;;;5020944;28;90204;-71
2022/09/19 11:16:57;;;;;;;9.32;3.42;;;16.90;99.90;;;;;;5036099;28;89686;-72
2022/09/19 11:19:49;;;;;;;7.65;1.67;;;16.90;99.90;;;;;;5036786;28;88110;-72
2022/09/19 11:22:55;;;;;;;8.68;3.30;;;17.10;99.90;;;;;;5036785;28;91061;-72
2022/09/19 11:25:48;;;;;;;12.23;2.05;;;17.50;99.90;;;;;;5036469;28;90225;-72
2022/09/19 11:28:38;;;;;;;6.32;2.38;;;17.80;99.90;;;;;;5036543;28;90037;-72
2022/09/19 11:31:30;;;;;;;12.88;1.90;;;18.10;99.90;;;;;;5034446;28;89041;-72
2022/09/19 11:34:43;;;;;;;12.07;2.05;;;18.30;99.90;;;;;;5049890;27;88980;-72
2022/09/19 11:37:32;;;;;;;3.63;2.15;;;18.40;99.90;;;;;;5013465;28;90280;-72
2022/09/19 11:40:39;;;;;;;5.07;1.60;;;18.10;99.90;;;;;;5016634;28;89736;-72
2022/09/19 11:43:30;;;;;;;7.68;2.03;;;18.20;99.90;;;;;;5016674;28;89570;-72
2022/09/19 11:46:14;;;;;;;6.45;2.15;;;18.20;99.90;;;;;;5016439;28;89874;-72
2022/09/19 11:49:09;;;;;;;8.40;3.42;;;18.20;99.90;;;;;;5015714;28;90606;-72
2022/09/19 11:51:51;;;;;;;5.63;1.80;;;18.20;99.90;;;;;;5016204;28;88545;-72
2022/09/19 11:54:51;;;;;;;13.43;3.58;;;18.20;99.90;;;;;;5000171;28;89219;-72
2022/09/19 11:57:21;;;;;;;;;;;18.20;99.90;;;;;;5015802;28;91137;-71
2022/09/19 12:00:18;;;;;;;11.77;2.20;;;18.10;99.90;;;;;;5016393;28;91900;-72
2022/09/19 12:02:58;;;;;;;7.55;1.55;;;18.30;99.90;;;;;;5018281;28;89333;-72
2022/09/19 12:05:53;;;;;;;9.40;2.90;;;18.30;99.70;;;;;;5019395;28;88075;-72
2022/09/19 12:08:43;;;;;;;9.75;2.03;;;18.40;98.60;;;;;;5019128;28;90943;-71
2022/09/19 12:11:40;;;;;;;8.63;2.50;;;18.40;99.20;;;;;;5019085;28;90788;-72
2022/09/19 12:14:23;;;;;;;13.38;2.45;;;18.70;98.10;;;;;;5018815;28;90995;-72
2022/09/19 12:16:58;;;;;;;12.88;2.38;;;18.80;97.90;;;;;;5018091;28;89262;-72
2022/09/19 12:19:45;;;;;;;9.05;2.08;;;18.70;96.50;;;;;;5019151;28;90744;-72
2022/09/19 12:22:28;;;;;;;8.98;2.90;;;18.60;96.10;;;;;;5019015;28;91143;-72
2022/09/19 12:25:12;;;;;;;9.52;1.75;;;18.60;97.30;;;;;;5018766;28;90935;-72
2022/09/19 12:27:46;;;;;;;7.50;2.55;;;18.70;96.50;;;;;;5018301;28;88920;-72
2022/09/19 12:30:18;;;;;;;10.38;2.03;;;18.70;95.50;;;;;;5018971;28;90845;-72
2022/09/19 12:33:06;;;;;;;7.47;2.15;;;18.70;95.70;;;;;;5018267;28;90842;-72
2022/09/19 12:35:48;;;;;;;6.22;3.20;;;18.70;94.80;;;;;;5018392;28;90876;-72
2022/09/19 12:38:43;;;;;;;10.50;2.20;;;18.70;94.20;;;;;;5035523;28;88199;-72
2022/09/19 12:41:20;;;;;;;6.70;2.88;;;18.70;93.90;;;;;;5018469;28;90193;-72
2022/09/19 12:44:38;;;;;;;7.25;2.35;;;18.60;93.50;;;;;;5018471;28;91180;-72
2022/09/19 12:47:31;;;;;;;11.55;2.85;;;18.80;92.30;;;;;;5005690;28;90791;-72
2022/09/19 12:50:21;;;;;;;6.88;2.63;;;18.60;92.40;;;;;;5018324;28;89163;-72
2022/09/19 12:53:09;;;;;;;8.70;1.95;;;18.40;92.40;;;;;;5019763;28;88292;-72
2022/09/19 12:55:41;;;;;;;8.45;2.08;;;18.40;93.20;;;;;;5018096;28;92105;-72
2022/09/19 12:58:20;;;;;;;9.63;2.28;;;18.50;93.50;;;;;;5018709;28;89153;-72
2022/09/19 13:00:48;;;;;;;10.27;2.00;;;18.90;92.80;;;;;;5019637;28;87904;-72
2022/09/19 13:03:22;;;;;;;9.48;2.97;;;19.20;92.90;;;;;;5019514;28;88286;-72
2022/09/19 13:06:24;;;;;;;12.55;3.13;;;19.50;92.20;;;;;;5001580;28;91763;-72
2022/09/19 13:09:03;;;;;;;8.15;3.42;;;19.80;92.70;;;;;;5012372;28;88655;-72
2022/09/19 13:11:34;;;;;;;11.20;3.03;;;19.80;92.70;;;;;;5019851;28;88005;-72
2022/09/19 13:14:11;;;;;;;16.52;2.95;;;19.60;92.60;;;;;;5018670;28;88164;-72
2022/09/19 13:23:29;;;;;;;7.93;2.15;;;19.50;92.80;;;;;;5019245;28;88620;-72
2022/09/19 13:25:14;;;;;;;7.47;1.83;;;19.40;91.90;;;;;;5019174;28;88393;-72
2022/09/19 13:27:45;;;;;;;6.63;1.92;;;19.40;91.70;;;;;;5019600;28;88966;-72
2022/09/19 13:30:53;;;;;;;7.47;1.88;;;19.30;92.00;;;;;;5017945;28;91435;-72
2022/09/19 13:33:22;;;;;;;6.70;1.75;;;19.30;92.50;;;;;;5000941;28;89373;-72
2022/09/19 13:35:52;;;;;;;11.55;2.65;;;19.20;92.80;;;;;;5019080;28;88331;-72
2022/09/19 13:38:49;;;;;;;6.75;2.10;;;19.10;91.40;;;;;;5017809;28;91451;-72
2022/09/19 13:41:16;;;;;;;6.78;2.58;;;19.30;91.90;;;;;;5015385;28;88802;-72
2022/09/19 13:43:49;;;;;;;7.90;2.75;;;19.10;91.10;;;;;;5017649;28;89300;-72
2022/09/19 13:46:24;;;;;;;5.75;2.03;;;19.20;90.60;;;;;;5018644;28;88283;-72
2022/09/19 13:49:00;;;;;;;11.02;2.22;;;19.30;90.60;;;;;;5017326;28;89670;-72
2022/09/19 13:51:39;;;;;;;7.00;1.77;;;19.40;90.30;;;;;;5017166;28;92091;-72
2022/09/19 13:54:22;;;;;;;7.47;1.55;;;19.60;89.50;;;;;;5034152;27;88003;-72
2022/09/19 13:57:07;;;;;;;;;;;19.60;90.20;;;;;;5019360;28;88427;-72
2022/09/19 13:59:38;;;;;;;;;;;19.20;92.00;;;;;;5019436;28;88666;-72
2022/09/19 14:02:20;;;;;;;6.30;2.38;;;18.70;92.90;;;;;;5019831;28;88317;-72
2022/09/19 14:04:57;;;;;;;10.75;1.80;;;18.60;93.50;;;;;;5019164;28;88021;-72
2022/09/19 14:07:40;;;;;;;7.82;2.63;;;18.50;94.00;;;;;;5001084;28;91079;-72
2022/09/19 14:10:52;;;;;;;8.52;2.50;;;18.40;95.10;;;;;;5018569;28;88873;-72
2022/09/19 14:13:24;;;;;;;8.73;2.65;;;18.40;95.40;;;;;;5000525;28;91047;-72
2022/09/19 14:16:00;;;;;;;7.07;2.10;;;18.40;95.10;;;;;;5016324;28;89475;-72
2022/09/19 14:18:36;;;;;;;5.75;1.48;;;18.50;95.40;;;;;;5000612;28;89446;-72